Time;durP1;ratioP1;P1;durP2;ratioP2;P2;SDS_P1;SDS_P2;PMS_P1;PMS_P2;Temp;Humidity;BMP_temperature;BMP_pressure;BME280_temperature;BME280_humidity;BME280_pressure;Samples;Min_cycle;Max_cycle;Signal;HPM_P1;HPM_P2
2021/10/13 05:06:37;;;;;;;;;69.25;52.25;;;;;;;;6462632;39;9072;-61
2021/10/13 05:12:39;;;;;;;;;63.75;49.25;;;;;;;;6493282;31;8934;-62
2021/10/13 08:05:53;;;;;;;;;69.50;55.00;;;;;;;;6490769;31;9109;-60
2021/10/13 08:11:55;;;;;;;;;47.25;42.00;;;;;;;;6489327;46;8925;-61
2021/10/13 08:18:00;;;;;;;;;56.00;46.50;;;;;;;;6491070;46;8815;-60
2021/10/13 08:24:02;;;;;;;;;51.00;43.00;;;;;;;;6489429;46;8890;-61
2021/10/13 08:30:05;;;;;;;;;45.75;41.25;;;;;;;;6489669;39;8926;-61
2021/10/13 08:36:08;;;;;;;;;52.50;44.75;;;;;;;;6490499;46;8910;-62
2021/10/13 08:42:10;;;;;;;;;56.50;46.00;;;;;;;;6489320;39;8913;-61
2021/10/13 08:48:12;;;;;;;;;55.50;46.50;;;;;;;;6489261;39;8986;-61
2021/10/13 08:54:17;;;;;;;;;49.50;43.75;;;;;;;;6489240;46;9075;-61
2021/10/13 09:00:22;;;;;;;;;46.50;41.75;;;;;;;;6489171;39;10590;-59
2021/10/13 09:06:25;;;;;;;;;53.00;45.25;;;;;;;;6488479;39;8847;-61
2021/10/13 09:12:39;;;;;;;;;56.50;46.50;;;;;;;;6487305;39;8950;-61
2021/10/13 09:18:59;;;;;;;;;56.75;44.75;;;;;;;;6488634;39;8851;-61
2021/10/13 09:25:10;;;;;;;;;57.50;48.75;;;;;;;;6488052;39;9025;-62
2021/10/13 09:31:18;;;;;;;;;56.50;45.50;;;;;;;;6487706;31;8990;-61
2021/10/13 09:37:21;;;;;;;;;57.75;45.50;;;;;;;;6487805;46;8842;-60
2021/10/13 09:43:34;;;;;;;;;52.75;45.50;;;;;;;;6488351;31;8872;-60
2021/10/13 09:49:44;;;;;;;;;55.75;45.75;;;;;;;;6486493;39;9595;-58
2021/10/13 09:55:47;;;;;;;;;48.00;43.25;;;;;;;;6485432;46;8848;-60
2021/10/13 10:01:57;;;;;;;;;47.50;43.25;;;;;;;;6484957;39;9058;-59
2021/10/13 10:08:10;;;;;;;;;61.75;47.00;;;;;;;;6486484;39;9570;-62
2021/10/13 10:14:42;;;;;;;;;56.50;46.25;;;;;;;;6487039;39;8957;-60
2021/10/13 10:20:48;;;;;;;;;51.75;42.50;;;;;;;;6486179;46;8926;-60
2021/10/13 10:26:51;;;;;;;;;59.75;49.25;;;;;;;;6486036;39;8883;-59
2021/10/13 10:33:04;;;;;;;;;62.75;48.25;;;;;;;;6486657;39;8978;-61
2021/10/13 10:39:14;;;;;;;;;55.50;45.25;;;;;;;;6485846;46;8953;-63
2021/10/13 10:45:23;;;;;;;;;62.75;51.25;;;;;;;;6486669;39;8859;-62
2021/10/13 10:51:25;;;;;;;;;61.75;49.75;;;;;;;;6486226;39;8967;-61
2021/10/13 10:57:38;;;;;;;;;49.00;43.75;;;;;;;;6487054;31;8861;-62
2021/10/13 11:03:42;;;;;;;;;56.75;48.75;;;;;;;;6486894;39;8930;-61
2021/10/13 11:09:44;;;;;;;;;62.00;51.50;;;;;;;;6486065;31;8951;-61
2021/10/13 11:15:47;;;;;;;;;63.25;50.25;;;;;;;;6485946;31;8863;-60
2021/10/13 11:22:06;;;;;;;;;61.50;50.25;;;;;;;;6485368;31;8843;-60
2021/10/13 11:28:11;;;;;;;;;51.25;45.25;;;;;;;;6485642;46;8907;-61
2021/10/13 11:34:17;;;;;;;;;54.50;46.00;;;;;;;;6485769;39;9030;-62
2021/10/13 11:40:21;;;;;;;;;62.25;51.75;;;;;;;;6485773;47;8859;-62
2021/10/13 11:46:23;;;;;;;;;55.75;45.50;;;;;;;;6485645;39;8875;-61
2021/10/13 11:52:30;;;;;;;;;49.00;42.75;;;;;;;;6485489;31;8926;-60
2021/10/13 11:58:32;;;;;;;;;45.00;39.00;;;;;;;;6486460;39;8919;-61
2021/10/13 12:04:34;;;;;;;;;58.25;41.00;;;;;;;;6485771;39;9553;-61
2021/10/13 12:10:45;;;;;;;;;49.75;43.75;;;;;;;;6485672;39;8915;-60
2021/10/13 12:16:47;;;;;;;;;57.25;43.50;;;;;;;;6486098;31;8974;-62
2021/10/13 12:22:55;;;;;;;;;45.50;40.25;;;;;;;;6485327;46;8948;-61
2021/10/13 12:29:09;;;;;;;;;51.25;44.00;;;;;;;;6485513;31;8859;-62
2021/10/13 12:35:13;;;;;;;;;58.00;48.25;;;;;;;;6485362;31;8844;-61
2021/10/13 12:41:17;;;;;;;;;61.25;50.00;;;;;;;;6487304;39;8844;-61
2021/10/13 12:47:20;;;;;;;;;59.75;46.75;;;;;;;;6488213;39;8888;-62
2021/10/13 12:53:26;;;;;;;;;55.75;47.25;;;;;;;;6487440;31;9668;-61
2021/10/13 12:59:30;;;;;;;;;62.00;50.25;;;;;;;;6487182;39;8919;-62
2021/10/13 13:05:33;;;;;;;;;54.25;43.50;;;;;;;;6486492;39;8902;-62
2021/10/13 13:11:44;;;;;;;;;64.50;50.00;;;;;;;;6485704;46;8931;-61
2021/10/13 13:17:46;;;;;;;;;59.25;47.50;;;;;;;;6487454;39;8875;-62
2021/10/13 13:23:51;;;;;;;;;58.75;48.75;;;;;;;;6487646;39;8914;-62
2021/10/13 13:29:55;;;;;;;;;55.50;45.25;;;;;;;;6488415;39;8883;-60
2021/10/13 13:35:57;;;;;;;;;61.00;50.00;;;;;;;;6487227;39;9003;-62
2021/10/13 13:42:00;;;;;;;;;59.25;49.50;;;;;;;;6487465;39;8919;-62
2021/10/13 13:48:02;;;;;;;;;65.25;50.25;;;;;;;;6489097;39;8887;-61
2021/10/13 13:54:04;;;;;;;;;69.50;55.50;;;;;;;;6489222;31;8921;-61
2021/10/13 14:00:08;;;;;;;;;64.25;51.25;;;;;;;;6489965;31;9629;-61
2021/10/13 14:06:10;;;;;;;;;62.75;53.75;;;;;;;;6489493;46;8918;-62
2021/10/13 14:12:13;;;;;;;;;67.75;52.00;;;;;;;;6489198;31;9178;-61
2021/10/13 14:18:17;;;;;;;;;63.50;50.50;;;;;;;;6488595;39;8970;-62
2021/10/13 14:24:25;;;;;;;;;70.25;53.75;;;;;;;;6489804;31;8880;-62
2021/10/13 14:30:27;;;;;;;;;67.75;54.75;;;;;;;;6489144;31;8923;-61
2021/10/13 14:36:29;;;;;;;;;67.33;53.00;;;;;;;;6489443;31;8881;-62
2021/10/13 14:42:31;;;;;;;;;68.00;53.00;;;;;;;;6488544;39;8868;-61
2021/10/13 14:48:33;;;;;;;;;69.25;57.00;;;;;;;;6487961;46;8908;-61
2021/10/13 14:54:39;;;;;;;;;65.00;55.25;;;;;;;;6488771;39;8870;-61
2021/10/13 15:00:41;;;;;;;;;67.75;56.50;;;;;;;;6487718;39;9064;-61
2021/10/13 15:06:45;;;;;;;;;71.20;55.40;;;;;;;;6126977;31;10001016;-62
2021/10/13 15:12:48;;;;;;;;;71.00;57.00;;;;;;;;6487346;39;8983;-61
2021/10/13 15:18:51;;;;;;;;;68.50;56.00;;;;;;;;6488006;31;8877;-61
2021/10/13 15:24:54;;;;;;;;;77.00;60.00;;;;;;;;6487767;31;8885;-61
2021/10/13 15:30:57;;;;;;;;;71.25;56.00;;;;;;;;6488089;46;8894;-61
2021/10/13 15:36:59;;;;;;;;;66.00;52.50;;;;;;;;6488465;39;8898;-62
2021/10/13 15:43:03;;;;;;;;;74.75;54.25;;;;;;;;6488364;39;8984;-61
2021/10/13 15:49:07;;;;;;;;;61.75;52.75;;;;;;;;6487095;31;9141;-61
2021/10/13 15:55:11;;;;;;;;;70.00;55.25;;;;;;;;6126675;36;10000473;-62
2021/10/13 16:01:13;;;;;;;;;69.75;53.25;;;;;;;;6488373;39;8938;-62
2021/10/13 16:07:16;;;;;;;;;73.00;57.75;;;;;;;;6487122;39;8904;-62
2021/10/13 16:13:18;;;;;;;;;73.25;59.25;;;;;;;;6488459;39;8929;-62
2021/10/13 16:19:20;;;;;;;;;74.25;60.25;;;;;;;;6489813;39;8865;-62
2021/10/13 16:25:23;;;;;;;;;76.25;60.50;;;;;;;;6488163;46;8888;-61
2021/10/13 16:31:25;;;;;;;;;83.00;63.75;;;;;;;;6488926;39;8928;-60
2021/10/13 16:37:28;;;;;;;;;75.25;59.75;;;;;;;;6490109;31;8879;-62
2021/10/13 16:43:32;;;;;;;;;72.67;58.00;;;;;;;;6488834;46;8927;-61
2021/10/13 16:49:34;;;;;;;;;79.00;62.75;;;;;;;;6490096;31;9575;-62
2021/10/13 16:55:38;;;;;;;;;86.25;65.75;;;;;;;;6488918;39;8984;-63
2021/10/13 17:01:41;;;;;;;;;79.75;64.00;;;;;;;;6489663;39;8955;-61
2021/10/13 17:07:45;;;;;;;;;80.75;61.00;;;;;;;;6489919;39;9647;-62
2021/10/13 17:13:49;;;;;;;;;75.75;60.75;;;;;;;;6489103;39;8880;-61
2021/10/13 17:19:55;;;;;;;;;69.00;55.25;;;;;;;;6489103;31;9072;-61
2021/10/13 17:25:57;;;;;;;;;67.25;56.25;;;;;;;;6488189;46;8873;-64
2021/10/13 17:32:00;;;;;;;;;74.00;58.75;;;;;;;;6490064;31;9103;-62
2021/10/13 17:38:02;;;;;;;;;77.75;62.00;;;;;;;;6488436;31;9625;-63
2021/10/13 17:44:04;;;;;;;;;75.25;58.25;;;;;;;;6489265;31;9195;-61
2021/10/13 17:50:08;;;;;;;;;78.25;62.00;;;;;;;;6488269;46;8946;-62
2021/10/13 17:56:13;;;;;;;;;77.50;61.75;;;;;;;;6488386;46;8933;-62
2021/10/13 18:02:18;;;;;;;;;79.50;62.00;;;;;;;;6488986;46;8952;-61
2021/10/13 18:08:22;;;;;;;;;69.75;56.50;;;;;;;;6489107;31;8964;-61
2021/10/13 18:14:24;;;;;;;;;67.25;54.25;;;;;;;;6488515;31;10056;-60
2021/10/13 18:20:27;;;;;;;;;66.50;54.25;;;;;;;;6488016;39;8896;-61
2021/10/13 18:26:32;;;;;;;;;72.25;56.75;;;;;;;;6489480;31;9012;-60
2021/10/13 18:32:35;;;;;;;;;71.00;56.75;;;;;;;;6489420;39;8929;-60
2021/10/13 18:38:37;;;;;;;;;74.50;58.75;;;;;;;;6488381;39;8877;-63
2021/10/13 18:44:39;;;;;;;;;75.50;61.75;;;;;;;;6489949;31;8930;-61
2021/10/13 18:50:43;;;;;;;;;75.00;60.50;;;;;;;;6488276;39;8868;-63
2021/10/13 18:56:45;;;;;;;;;78.00;61.25;;;;;;;;6488537;39;9580;-63
2021/10/13 19:02:51;;;;;;;;;79.25;59.75;;;;;;;;6489145;31;9601;-62
2021/10/13 19:08:54;;;;;;;;;72.25;57.50;;;;;;;;6488249;31;9468;-62
2021/10/13 19:14:56;;;;;;;;;74.00;57.75;;;;;;;;6488134;31;8939;-63
2021/10/13 19:20:59;;;;;;;;;67.25;55.75;;;;;;;;6487685;31;8861;-62
2021/10/13 19:27:01;;;;;;;;;74.25;56.75;;;;;;;;6488873;39;8893;-61
2021/10/13 19:33:04;;;;;;;;;64.75;55.25;;;;;;;;6487503;31;8932;-64
2021/10/13 19:39:11;;;;;;;;;70.00;55.25;;;;;;;;6487419;31;9020;-61
2021/10/13 19:45:16;;;;;;;;;69.00;54.50;;;;;;;;6488768;31;9562;-61
2021/10/13 19:51:19;;;;;;;;;66.50;53.50;;;;;;;;6489456;39;8923;-61
2021/10/13 19:57:22;;;;;;;;;63.75;51.00;;;;;;;;6489256;31;9052;-61
2021/10/13 20:03:24;;;;;;;;;65.50;52.50;;;;;;;;6490148;31;9551;-63
2021/10/13 20:09:26;;;;;;;;;63.50;52.25;;;;;;;;6490666;39;8852;-59
2021/10/13 20:15:30;;;;;;;;;61.25;52.00;;;;;;;;6490587;39;8922;-62
2021/10/13 20:21:33;;;;;;;;;58.50;46.75;;;;;;;;6489006;31;8856;-63
2021/10/13 20:27:35;;;;;;;;;62.75;51.00;;;;;;;;6488936;31;8865;-61
2021/10/13 20:33:40;;;;;;;;;62.75;50.00;;;;;;;;6488845;46;8989;-61
2021/10/13 20:39:44;;;;;;;;;53.50;46.25;;;;;;;;6489363;31;8864;-63
2021/10/13 20:45:49;;;;;;;;;63.00;49.00;;;;;;;;6490364;39;9432;-63
2021/10/13 20:51:54;;;;;;;;;64.50;50.50;;;;;;;;6488800;31;8845;-63
2021/10/13 20:57:57;;;;;;;;;62.00;49.75;;;;;;;;6488585;39;8908;-62
2021/10/13 21:04:00;;;;;;;;;64.50;51.25;;;;;;;;6488706;39;8936;-62
2021/10/13 21:10:04;;;;;;;;;57.50;46.25;;;;;;;;6487930;46;8880;-62
2021/10/13 21:16:27;;;;;;;;;67.00;50.50;;;;;;;;6489005;39;9632;-61
2021/10/13 21:22:31;;;;;;;;;60.75;47.75;;;;;;;;6487506;46;8914;-61
2021/10/13 21:28:35;;;;;;;;;68.25;51.25;;;;;;;;6488482;39;8865;-61
2021/10/13 21:34:37;;;;;;;;;62.75;51.00;;;;;;;;6489214;31;9567;-61
2021/10/13 21:40:41;;;;;;;;;58.75;46.00;;;;;;;;6488174;31;9086;-60
2021/10/13 21:46:47;;;;;;;;;57.00;47.50;;;;;;;;6489165;31;8902;-61
2021/10/13 21:52:50;;;;;;;;;58.50;47.50;;;;;;;;6487870;39;9019;-62
2021/10/13 21:58:52;;;;;;;;;61.50;48.50;;;;;;;;6487634;46;8982;-61
2021/10/13 22:04:54;;;;;;;;;59.75;45.50;;;;;;;;6487533;31;8908;-62
2021/10/13 22:10:58;;;;;;;;;59.75;49.50;;;;;;;;6487154;39;10069;-61
2021/10/13 22:17:00;;;;;;;;;49.25;43.50;;;;;;;;6487586;31;8899;-61
2021/10/13 22:23:03;;;;;;;;;60.50;47.50;;;;;;;;6487923;46;8919;-61
2021/10/13 22:29:07;;;;;;;;;61.25;50.00;;;;;;;;6488615;39;9539;-61
2021/10/13 22:35:10;;;;;;;;;60.25;48.75;;;;;;;;6487334;31;8904;-61
2021/10/13 22:41:12;;;;;;;;;56.50;48.00;;;;;;;;6488470;31;8935;-61
2021/10/13 22:47:14;;;;;;;;;51.25;44.50;;;;;;;;6487282;39;9459;-60
2021/10/13 22:53:20;;;;;;;;;58.50;48.25;;;;;;;;6487704;31;8995;-62
2021/10/13 22:59:22;;;;;;;;;54.25;45.75;;;;;;;;6488206;39;8927;-59
2021/10/13 23:05:25;;;;;;;;;51.25;41.75;;;;;;;;6487024;31;9020;-62
2021/10/13 23:11:28;;;;;;;;;56.25;46.50;;;;;;;;6487581;39;8970;-61
2021/10/13 23:17:31;;;;;;;;;61.00;48.75;;;;;;;;6487565;39;9586;-62
2021/10/13 23:23:40;;;;;;;;;50.00;42.50;;;;;;;;6486734;31;8840;-62
2021/10/13 23:29:44;;;;;;;;;56.50;44.50;;;;;;;;6487980;31;8935;-61
2021/10/13 23:35:52;;;;;;;;;52.75;42.75;;;;;;;;6486872;46;8888;-61
2021/10/13 23:41:54;;;;;;;;;50.50;44.00;;;;;;;;6487102;31;8895;-60
2021/10/13 23:47:56;;;;;;;;;49.75;43.75;;;;;;;;6486628;47;8880;-61
2021/10/13 23:53:58;;;;;;;;;56.50;43.50;;;;;;;;6486048;47;8865;-62
